sensor_id;sensor_type;location;lat;lon;timestamp;P1;durP1;ratioP1;P2;durP2;ratioP2
10596;SDS011;5346;48.766;8.674;2023-03-21T00:01:13;3.00;;;1.40;;
10596;SDS011;5346;48.766;8.674;2023-03-21T00:03:47;1.90;;;1.50;;
10596;SDS011;5346;48.766;8.674;2023-03-21T00:06:23;2.33;;;1.40;;
10596;SDS011;5346;48.766;8.674;2023-03-21T00:08:57;2.87;;;1.10;;
10596;SDS011;5346;48.766;8.674;2023-03-21T00:11:31;2.80;;;1.57;;
10596;SDS011;5346;48.766;8.674;2023-03-21T00:14:05;2.37;;;1.53;;
10596;SDS011;5346;48.766;8.674;2023-03-21T00:16:34;2.87;;;1.70;;
10596;SDS011;5346;48.766;8.674;2023-03-21T00:19:09;3.03;;;1.53;;
10596;SDS011;5346;48.766;8.674;2023-03-21T00:21:37;4.90;;;1.60;;
10596;SDS011;5346;48.766;8.674;2023-03-21T00:24:31;1.50;;;1.23;;
10596;SDS011;5346;48.766;8.674;2023-03-21T00:26:59;5.80;;;1.77;;
10596;SDS011;5346;48.766;8.674;2023-03-21T00:29:53;1.83;;;1.50;;
10596;SDS011;5346;48.766;8.674;2023-03-21T00:32:27;1.50;;;1.40;;
10596;SDS011;5346;48.766;8.674;2023-03-21T00:35:14;2.27;;;1.60;;
10596;SDS011;5346;48.766;8.674;2023-03-21T00:38:08;1.83;;;1.50;;
10596;SDS011;5346;48.766;8.674;2023-03-21T00:40:43;1.90;;;1.50;;
10596;SDS011;5346;48.766;8.674;2023-03-21T00:43:17;1.50;;;1.40;;
10596;SDS011;5346;48.766;8.674;2023-03-21T00:45:56;2.33;;;1.30;;
10596;SDS011;5346;48.766;8.674;2023-03-21T00:48:31;3.70;;;1.50;;
10596;SDS011;5346;48.766;8.674;2023-03-21T00:50:59;2.03;;;1.67;;
10596;SDS011;5346;48.766;8.674;2023-03-21T00:53:33;2.50;;;1.40;;
10596;SDS011;5346;48.766;8.674;2023-03-21T00:56:07;1.57;;;1.33;;
10596;SDS011;5346;48.766;8.674;2023-03-21T00:58:41;2.70;;;1.50;;
10596;SDS011;5346;48.766;8.674;2023-03-21T01:01:15;3.90;;;1.67;;
10596;SDS011;5346;48.766;8.674;2023-03-21T01:03:43;3.53;;;1.20;;
10596;SDS011;5346;48.766;8.674;2023-03-21T01:06:22;2.33;;;1.33;;
10596;SDS011;5346;48.766;8.674;2023-03-21T01:08:52;3.20;;;1.30;;
10596;SDS011;5346;48.766;8.674;2023-03-21T01:11:27;3.03;;;1.23;;
10596;SDS011;5346;48.766;8.674;2023-03-21T01:13:55;1.73;;;1.43;;
10596;SDS011;5346;48.766;8.674;2023-03-21T01:16:47;1.40;;;1.20;;
10596;SDS011;5346;48.766;8.674;2023-03-21T01:19:23;1.60;;;1.13;;
10596;SDS011;5346;48.766;8.674;2023-03-21T01:22:17;3.23;;;1.50;;
10596;SDS011;5346;48.766;8.674;2023-03-21T01:24:45;2.23;;;1.50;;
10596;SDS011;5346;48.766;8.674;2023-03-21T01:27:28;1.97;;;1.33;;
10596;SDS011;5346;48.766;8.674;2023-03-21T01:30:03;1.87;;;1.43;;
10596;SDS011;5346;48.766;8.674;2023-03-21T01:32:44;1.50;;;1.17;;
10596;SDS011;5346;48.766;8.674;2023-03-21T01:35:19;2.30;;;1.17;;
10596;SDS011;5346;48.766;8.674;2023-03-21T01:38:02;1.80;;;1.30;;
10596;SDS011;5346;48.766;8.674;2023-03-21T01:40:37;2.77;;;1.50;;
10596;SDS011;5346;48.766;8.674;2023-03-21T01:49:01;2.20;;;1.30;;
10596;SDS011;5346;48.766;8.674;2023-03-21T01:52:05;2.50;;;1.20;;
10596;SDS011;5346;48.766;8.674;2023-03-21T01:54:42;1.57;;;1.40;;
10596;SDS011;5346;48.766;8.674;2023-03-21T01:57:23;1.93;;;1.40;;
10596;SDS011;5346;48.766;8.674;2023-03-21T02:00:10;2.47;;;1.63;;
10596;SDS011;5346;48.766;8.674;2023-03-21T02:02:47;2.10;;;1.53;;
10596;SDS011;5346;48.766;8.674;2023-03-21T02:06:11;1.50;;;1.40;;
10596;SDS011;5346;48.766;8.674;2023-03-21T02:08:39;1.70;;;1.50;;
10596;SDS011;5346;48.766;8.674;2023-03-21T02:11:07;2.10;;;1.60;;
10596;SDS011;5346;48.766;8.674;2023-03-21T02:13:44;2.10;;;1.47;;
10596;SDS011;5346;48.766;8.674;2023-03-21T02:16:40;1.47;;;1.20;;
10596;SDS011;5346;48.766;8.674;2023-03-21T02:31:04;2.50;;;1.63;;
10596;SDS011;5346;48.766;8.674;2023-03-21T02:34:14;2.67;;;1.70;;
10596;SDS011;5346;48.766;8.674;2023-03-21T02:36:56;3.27;;;1.50;;
10596;SDS011;5346;48.766;8.674;2023-03-21T02:42:56;2.33;;;1.50;;
10596;SDS011;5346;48.766;8.674;2023-03-21T02:45:53;2.10;;;1.77;;
10596;SDS011;5346;48.766;8.674;2023-03-21T02:49:09;2.70;;;1.47;;
10596;SDS011;5346;48.766;8.674;2023-03-21T02:51:52;2.27;;;1.47;;
10596;SDS011;5346;48.766;8.674;2023-03-21T02:54:30;2.57;;;1.30;;
10596;SDS011;5346;48.766;8.674;2023-03-21T02:57:14;2.00;;;1.50;;
10596;SDS011;5346;48.766;8.674;2023-03-21T03:00:08;5.20;;;1.77;;
10596;SDS011;5346;48.766;8.674;2023-03-21T03:02:42;3.20;;;1.87;;
10596;SDS011;5346;48.766;8.674;2023-03-21T03:05:34;2.93;;;1.40;;
10596;SDS011;5346;48.766;8.674;2023-03-21T03:23:33;2.30;;;1.40;;
10596;SDS011;5346;48.766;8.674;2023-03-21T03:29:00;2.33;;;1.70;;
10596;SDS011;5346;48.766;8.674;2023-03-21T03:32:02;2.97;;;1.70;;
10596;SDS011;5346;48.766;8.674;2023-03-21T03:34:35;2.77;;;1.60;;
10596;SDS011;5346;48.766;8.674;2023-03-21T03:37:07;2.50;;;1.70;;
10596;SDS011;5346;48.766;8.674;2023-03-21T03:39:47;3.53;;;2.60;;
10596;SDS011;5346;48.766;8.674;2023-03-21T03:42:34;2.70;;;1.70;;
10596;SDS011;5346;48.766;8.674;2023-03-21T03:45:15;3.03;;;1.73;;
10596;SDS011;5346;48.766;8.674;2023-03-21T03:47:52;3.00;;;1.60;;
10596;SDS011;5346;48.766;8.674;2023-03-21T03:50:35;1.70;;;1.50;;
10596;SDS011;5346;48.766;8.674;2023-03-21T03:53:12;4.27;;;1.77;;
10596;SDS011;5346;48.766;8.674;2023-03-21T03:55:54;2.63;;;1.80;;
10596;SDS011;5346;48.766;8.674;2023-03-21T03:58:23;5.47;;;1.70;;
10596;SDS011;5346;48.766;8.674;2023-03-21T04:01:10;2.73;;;1.80;;
10596;SDS011;5346;48.766;8.674;2023-03-21T04:03:45;3.30;;;2.07;;
10596;SDS011;5346;48.766;8.674;2023-03-21T04:06:37;3.73;;;1.90;;
10596;SDS011;5346;48.766;8.674;2023-03-21T04:09:11;3.07;;;2.47;;
10596;SDS011;5346;48.766;8.674;2023-03-21T04:12:02;2.23;;;1.83;;
10596;SDS011;5346;48.766;8.674;2023-03-21T04:14:36;4.00;;;1.80;;
10596;SDS011;5346;48.766;8.674;2023-03-21T04:17:12;2.80;;;2.00;;
10596;SDS011;5346;48.766;8.674;2023-03-21T04:19:47;2.83;;;2.10;;
10596;SDS011;5346;48.766;8.674;2023-03-21T04:22:23;1.90;;;1.70;;
10596;SDS011;5346;48.766;8.674;2023-03-21T04:24:57;4.33;;;2.03;;
10596;SDS011;5346;48.766;8.674;2023-03-21T04:27:26;3.57;;;2.03;;
10596;SDS011;5346;48.766;8.674;2023-03-21T04:30:00;7.33;;;2.27;;
10596;SDS011;5346;48.766;8.674;2023-03-21T04:32:35;5.70;;;2.43;;
10596;SDS011;5346;48.766;8.674;2023-03-21T04:35:11;3.07;;;1.90;;
10596;SDS011;5346;48.766;8.674;2023-03-21T04:37:45;3.20;;;1.80;;
10596;SDS011;5346;48.766;8.674;2023-03-21T04:40:13;4.93;;;2.10;;
10596;SDS011;5346;48.766;8.674;2023-03-21T04:42:50;4.37;;;2.00;;
10596;SDS011;5346;48.766;8.674;2023-03-21T04:45:18;3.07;;;2.20;;
10596;SDS011;5346;48.766;8.674;2023-03-21T04:47:52;4.47;;;2.20;;
10596;SDS011;5346;48.766;8.674;2023-03-21T04:50:19;5.47;;;2.70;;
10596;SDS011;5346;48.766;8.674;2023-03-21T04:52:53;4.60;;;2.40;;
10596;SDS011;5346;48.766;8.674;2023-03-21T04:55:20;2.33;;;2.13;;
10596;SDS011;5346;48.766;8.674;2023-03-21T04:57:55;2.50;;;2.27;;
10596;SDS011;5346;48.766;8.674;2023-03-21T05:00:29;3.27;;;2.40;;
10596;SDS011;5346;48.766;8.674;2023-03-21T05:02:58;4.07;;;2.07;;
10596;SDS011;5346;48.766;8.674;2023-03-21T05:05:34;6.53;;;2.13;;
10596;SDS011;5346;48.766;8.674;2023-03-21T05:08:03;3.83;;;2.47;;
10596;SDS011;5346;48.766;8.674;2023-03-21T05:10:38;4.93;;;2.60;;
10596;SDS011;5346;48.766;8.674;2023-03-21T05:13:12;4.37;;;2.40;;
10596;SDS011;5346;48.766;8.674;2023-03-21T05:15:46;5.70;;;2.40;;
10596;SDS011;5346;48.766;8.674;2023-03-21T05:18:20;4.00;;;2.20;;
10596;SDS011;5346;48.766;8.674;2023-03-21T05:20:57;4.57;;;2.33;;
10596;SDS011;5346;48.766;8.674;2023-03-21T05:23:24;5.80;;;2.20;;
10596;SDS011;5346;48.766;8.674;2023-03-21T05:26:06;6.23;;;2.17;;
10596;SDS011;5346;48.766;8.674;2023-03-21T05:28:42;4.17;;;2.00;;
10596;SDS011;5346;48.766;8.674;2023-03-21T05:31:16;4.97;;;2.30;;
10596;SDS011;5346;48.766;8.674;2023-03-21T05:33:51;3.97;;;2.30;;
10596;SDS011;5346;48.766;8.674;2023-03-21T05:36:19;5.90;;;2.70;;
10596;SDS011;5346;48.766;8.674;2023-03-21T05:38:55;4.07;;;2.37;;
10596;SDS011;5346;48.766;8.674;2023-03-21T05:41:22;2.53;;;2.20;;
10596;SDS011;5346;48.766;8.674;2023-03-21T05:43:56;3.33;;;2.33;;
10596;SDS011;5346;48.766;8.674;2023-03-21T05:46:23;6.67;;;2.20;;
10596;SDS011;5346;48.766;8.674;2023-03-21T05:48:57;8.03;;;2.43;;
10596;SDS011;5346;48.766;8.674;2023-03-21T05:51:25;4.90;;;2.00;;
10596;SDS011;5346;48.766;8.674;2023-03-21T05:53:59;3.00;;;2.30;;
10596;SDS011;5346;48.766;8.674;2023-03-21T05:56:28;4.00;;;2.47;;
10596;SDS011;5346;48.766;8.674;2023-03-21T05:59:03;4.67;;;2.63;;
10596;SDS011;5346;48.766;8.674;2023-03-21T06:01:30;4.17;;;2.43;;
10596;SDS011;5346;48.766;8.674;2023-03-21T06:04:04;4.63;;;3.30;;
10596;SDS011;5346;48.766;8.674;2023-03-21T06:06:38;4.83;;;2.60;;
10596;SDS011;5346;48.766;8.674;2023-03-21T06:09:19;4.50;;;2.37;;
10596;SDS011;5346;48.766;8.674;2023-03-21T06:12:01;3.40;;;2.63;;
10596;SDS011;5346;48.766;8.674;2023-03-21T06:14:35;3.50;;;2.17;;
10596;SDS011;5346;48.766;8.674;2023-03-21T06:17:11;6.07;;;2.57;;
10596;SDS011;5346;48.766;8.674;2023-03-21T06:19:38;3.67;;;2.80;;
10596;SDS011;5346;48.766;8.674;2023-03-21T06:22:13;5.20;;;2.90;;
10596;SDS011;5346;48.766;8.674;2023-03-21T06:24:54;3.50;;;2.27;;
10596;SDS011;5346;48.766;8.674;2023-03-21T06:27:28;3.60;;;2.50;;
10596;SDS011;5346;48.766;8.674;2023-03-21T06:29:56;3.33;;;2.20;;
10596;SDS011;5346;48.766;8.674;2023-03-21T06:32:30;4.80;;;2.73;;
10596;SDS011;5346;48.766;8.674;2023-03-21T06:34:58;3.83;;;2.40;;
10596;SDS011;5346;48.766;8.674;2023-03-21T06:37:26;4.37;;;2.67;;
10596;SDS011;5346;48.766;8.674;2023-03-21T06:40:00;4.30;;;2.70;;
10596;SDS011;5346;48.766;8.674;2023-03-21T06:42:27;3.20;;;2.40;;
10596;SDS011;5346;48.766;8.674;2023-03-21T06:45:02;4.67;;;2.23;;
10596;SDS011;5346;48.766;8.674;2023-03-21T06:47:30;4.30;;;2.30;;
10596;SDS011;5346;48.766;8.674;2023-03-21T06:50:04;8.27;;;2.47;;
10596;SDS011;5346;48.766;8.674;2023-03-21T06:52:32;2.30;;;2.03;;
10596;SDS011;5346;48.766;8.674;2023-03-21T06:55:06;3.23;;;2.23;;
10596;SDS011;5346;48.766;8.674;2023-03-21T06:57:34;4.30;;;2.23;;
10596;SDS011;5346;48.766;8.674;2023-03-21T07:00:08;2.90;;;2.30;;
10596;SDS011;5346;48.766;8.674;2023-03-21T07:02:45;2.70;;;2.13;;
10596;SDS011;5346;48.766;8.674;2023-03-21T07:05:16;2.47;;;1.90;;
10596;SDS011;5346;48.766;8.674;2023-03-21T07:07:50;2.53;;;2.03;;
10596;SDS011;5346;48.766;8.674;2023-03-21T07:10:19;2.20;;;1.70;;
10596;SDS011;5346;48.766;8.674;2023-03-21T07:13:00;4.47;;;1.93;;
10596;SDS011;5346;48.766;8.674;2023-03-21T07:15:28;2.58;;;1.85;;
10596;SDS011;5346;48.766;8.674;2023-03-21T07:18:03;2.22;;;1.85;;
10596;SDS011;5346;48.766;8.674;2023-03-21T07:20:38;3.45;;;2.10;;
10596;SDS011;5346;48.766;8.674;2023-03-21T07:23:13;3.15;;;2.00;;
10596;SDS011;5346;48.766;8.674;2023-03-21T07:25:41;3.30;;;1.63;;
10596;SDS011;5346;48.766;8.674;2023-03-21T07:28:15;2.58;;;2.00;;
10596;SDS011;5346;48.766;8.674;2023-03-21T07:30:49;4.28;;;1.75;;
10596;SDS011;5346;48.766;8.674;2023-03-21T07:33:42;2.40;;;2.20;;
10596;SDS011;5346;48.766;8.674;2023-03-21T07:36:17;3.40;;;1.70;;
10596;SDS011;5346;48.766;8.674;2023-03-21T07:38:51;3.88;;;1.73;;
10596;SDS011;5346;48.766;8.674;2023-03-21T07:41:26;3.63;;;1.92;;
10596;SDS011;5346;48.766;8.674;2023-03-21T07:43:55;3.55;;;2.13;;
10596;SDS011;5346;48.766;8.674;2023-03-21T07:46:29;1.98;;;1.75;;
10596;SDS011;5346;48.766;8.674;2023-03-21T07:48:57;2.55;;;1.75;;
10596;SDS011;5346;48.766;8.674;2023-03-21T07:51:31;2.08;;;1.42;;
10596;SDS011;5346;48.766;8.674;2023-03-21T07:54:08;2.42;;;1.90;;
10596;SDS011;5346;48.766;8.674;2023-03-21T07:56:42;3.13;;;1.73;;
10596;SDS011;5346;48.766;8.674;2023-03-21T07:59:10;2.65;;;1.60;;
10596;SDS011;5346;48.766;8.674;2023-03-21T08:01:44;1.92;;;1.60;;
10596;SDS011;5346;48.766;8.674;2023-03-21T08:04:12;1.92;;;1.73;;
10596;SDS011;5346;48.766;8.674;2023-03-21T08:06:46;2.03;;;1.80;;
10596;SDS011;5346;48.766;8.674;2023-03-21T08:09:23;3.17;;;1.55;;
10596;SDS011;5346;48.766;8.674;2023-03-21T08:12:04;4.30;;;2.10;;
10596;SDS011;5346;48.766;8.674;2023-03-21T08:14:40;2.42;;;1.70;;
10596;SDS011;5346;48.766;8.674;2023-03-21T08:17:14;2.58;;;1.75;;
10596;SDS011;5346;48.766;8.674;2023-03-21T08:19:42;2.63;;;2.05;;
10596;SDS011;5346;48.766;8.674;2023-03-21T08:22:17;3.03;;;1.80;;
10596;SDS011;5346;48.766;8.674;2023-03-21T08:24:44;2.50;;;1.92;;
10596;SDS011;5346;48.766;8.674;2023-03-21T08:27:18;5.80;;;1.65;;
10596;SDS011;5346;48.766;8.674;2023-03-21T08:29:46;1.73;;;1.20;;
10596;SDS011;5346;48.766;8.674;2023-03-21T08:32:20;4.25;;;1.88;;
10596;SDS011;5346;48.766;8.674;2023-03-21T08:34:56;4.18;;;1.60;;
10596;SDS011;5346;48.766;8.674;2023-03-21T08:37:32;2.00;;;1.52;;
10596;SDS011;5346;48.766;8.674;2023-03-21T08:40:11;1.85;;;1.52;;
10596;SDS011;5346;48.766;8.674;2023-03-21T08:42:41;2.55;;;1.42;;
10596;SDS011;5346;48.766;8.674;2023-03-21T08:45:18;2.03;;;1.73;;
10596;SDS011;5346;48.766;8.674;2023-03-21T08:47:48;2.28;;;1.67;;
10596;SDS011;5346;48.766;8.674;2023-03-21T08:50:25;2.60;;;1.42;;
10596;SDS011;5346;48.766;8.674;2023-03-21T08:52:55;1.60;;;1.50;;
10596;SDS011;5346;48.766;8.674;2023-03-21T08:55:29;2.00;;;1.80;;
10596;SDS011;5346;48.766;8.674;2023-03-21T08:57:58;5.45;;;1.88;;
10596;SDS011;5346;48.766;8.674;2023-03-21T09:00:27;1.95;;;1.40;;
10596;SDS011;5346;48.766;8.674;2023-03-21T09:03:01;2.53;;;1.75;;
10596;SDS011;5346;48.766;8.674;2023-03-21T09:05:30;1.60;;;1.45;;
10596;SDS011;5346;48.766;8.674;2023-03-21T09:08:05;2.38;;;1.65;;
10596;SDS011;5346;48.766;8.674;2023-03-21T09:10:33;2.13;;;1.60;;
10596;SDS011;5346;48.766;8.674;2023-03-21T09:13:14;1.90;;;1.70;;
10596;SDS011;5346;48.766;8.674;2023-03-21T09:15:42;3.00;;;1.75;;
10596;SDS011;5346;48.766;8.674;2023-03-21T09:18:17;2.00;;;1.80;;
10596;SDS011;5346;48.766;8.674;2023-03-21T09:20:48;1.75;;;1.65;;
10596;SDS011;5346;48.766;8.674;2023-03-21T09:23:22;2.83;;;1.80;;
10596;SDS011;5346;48.766;8.674;2023-03-21T09:25:50;3.15;;;1.73;;
10596;SDS011;5346;48.766;8.674;2023-03-21T09:28:24;3.53;;;2.13;;
10596;SDS011;5346;48.766;8.674;2023-03-21T09:30:52;3.28;;;2.10;;
10596;SDS011;5346;48.766;8.674;2023-03-21T09:33:30;2.45;;;1.70;;
10596;SDS011;5346;48.766;8.674;2023-03-21T09:35:58;3.97;;;1.80;;
10596;SDS011;5346;48.766;8.674;2023-03-21T09:38:33;1.95;;;1.55;;
10596;SDS011;5346;48.766;8.674;2023-03-21T09:44:04;5.20;;;1.80;;
10596;SDS011;5346;48.766;8.674;2023-03-21T09:49:29;1.60;;;1.50;;
10596;SDS011;5346;48.766;8.674;2023-03-21T09:52:26;1.98;;;1.63;;
10596;SDS011;5346;48.766;8.674;2023-03-21T09:55:19;5.20;;;1.60;;
10596;SDS011;5346;48.766;8.674;2023-03-21T10:00:52;1.52;;;1.20;;
10596;SDS011;5346;48.766;8.674;2023-03-21T10:03:42;2.83;;;1.50;;
10596;SDS011;5346;48.766;8.674;2023-03-21T10:06:16;1.92;;;1.33;;
10596;SDS011;5346;48.766;8.674;2023-03-21T10:09:33;1.95;;;1.30;;
10596;SDS011;5346;48.766;8.674;2023-03-21T10:12:14;3.15;;;1.65;;
10596;SDS011;5346;48.766;8.674;2023-03-21T10:14:48;1.27;;;1.17;;
10596;SDS011;5346;48.766;8.674;2023-03-21T10:17:33;1.48;;;1.10;;
10596;SDS011;5346;48.766;8.674;2023-03-21T10:20:15;3.13;;;1.30;;
10596;SDS011;5346;48.766;8.674;2023-03-21T10:22:54;4.45;;;1.10;;
10596;SDS011;5346;48.766;8.674;2023-03-21T10:28:14;2.20;;;1.50;;
10596;SDS011;5346;48.766;8.674;2023-03-21T10:30:53;1.98;;;1.40;;
10596;SDS011;5346;48.766;8.674;2023-03-21T10:33:23;1.58;;;1.30;;
10596;SDS011;5346;48.766;8.674;2023-03-21T10:36:21;2.75;;;1.25;;
10596;SDS011;5346;48.766;8.674;2023-03-21T10:38:52;1.85;;;1.42;;
10596;SDS011;5346;48.766;8.674;2023-03-21T10:41:28;2.17;;;1.42;;
10596;SDS011;5346;48.766;8.674;2023-03-21T10:44:07;1.60;;;1.42;;
10596;SDS011;5346;48.766;8.674;2023-03-21T10:46:50;1.88;;;1.50;;
10596;SDS011;5346;48.766;8.674;2023-03-21T10:49:36;1.65;;;1.52;;
10596;SDS011;5346;48.766;8.674;2023-03-21T10:52:31;3.20;;;1.50;;
10596;SDS011;5346;48.766;8.674;2023-03-21T10:58:05;3.60;;;1.60;;
10596;SDS011;5346;48.766;8.674;2023-03-21T11:00:53;1.55;;;1.25;;
10596;SDS011;5346;48.766;8.674;2023-03-21T11:03:27;2.25;;;1.52;;
10596;SDS011;5346;48.766;8.674;2023-03-21T11:06:05;2.97;;;1.70;;
10596;SDS011;5346;48.766;8.674;2023-03-21T11:08:38;2.40;;;1.60;;
10596;SDS011;5346;48.766;8.674;2023-03-21T11:11:25;1.60;;;1.50;;
10596;SDS011;5346;48.766;8.674;2023-03-21T11:14:23;2.20;;;1.52;;
10596;SDS011;5346;48.766;8.674;2023-03-21T11:16:58;2.80;;;1.40;;
10596;SDS011;5346;48.766;8.674;2023-03-21T11:19:34;2.40;;;1.50;;
10596;SDS011;5346;48.766;8.674;2023-03-21T11:22:05;1.48;;;1.38;;
10596;SDS011;5346;48.766;8.674;2023-03-21T11:24:46;2.15;;;1.65;;
10596;SDS011;5346;48.766;8.674;2023-03-21T11:27:27;3.15;;;1.92;;
10596;SDS011;5346;48.766;8.674;2023-03-21T11:29:57;1.75;;;1.25;;
10596;SDS011;5346;48.766;8.674;2023-03-21T11:32:34;1.60;;;1.50;;
10596;SDS011;5346;48.766;8.674;2023-03-21T11:35:12;6.28;;;1.70;;
10596;SDS011;5346;48.766;8.674;2023-03-21T11:37:53;2.40;;;1.70;;
10596;SDS011;5346;48.766;8.674;2023-03-21T11:40:29;2.05;;;1.50;;
10596;SDS011;5346;48.766;8.674;2023-03-21T11:43:27;1.67;;;1.33;;
10596;SDS011;5346;48.766;8.674;2023-03-21T11:48:42;2.83;;;1.67;;
10596;SDS011;5346;48.766;8.674;2023-03-21T12:06:04;1.67;;;1.52;;
10596;SDS011;5346;48.766;8.674;2023-03-21T12:08:43;1.83;;;1.50;;
10596;SDS011;5346;48.766;8.674;2023-03-21T12:14:23;2.28;;;1.50;;
10596;SDS011;5346;48.766;8.674;2023-03-21T12:17:23;2.22;;;1.98;;
10596;SDS011;5346;48.766;8.674;2023-03-21T12:25:55;1.70;;;1.23;;
10596;SDS011;5346;48.766;8.674;2023-03-21T12:39:30;1.33;;;1.23;;
10596;SDS011;5346;48.766;8.674;2023-03-21T12:45:05;3.60;;;1.70;;
10596;SDS011;5346;48.766;8.674;2023-03-21T12:47:44;3.78;;;1.63;;
10596;SDS011;5346;48.766;8.674;2023-03-21T12:50:32;2.55;;;1.60;;
10596;SDS011;5346;48.766;8.674;2023-03-21T12:55:55;1.98;;;1.60;;
10596;SDS011;5346;48.766;8.674;2023-03-21T12:58:35;3.55;;;1.58;;
10596;SDS011;5346;48.766;8.674;2023-03-21T13:01:14;3.42;;;1.52;;
10596;SDS011;5346;48.766;8.674;2023-03-21T13:04:03;3.88;;;1.30;;
10596;SDS011;5346;48.766;8.674;2023-03-21T13:06:52;3.03;;;1.48;;
10596;SDS011;5346;48.766;8.674;2023-03-21T13:09:33;1.80;;;1.50;;
10596;SDS011;5346;48.766;8.674;2023-03-21T13:18:16;2.88;;;1.60;;
10596;SDS011;5346;48.766;8.674;2023-03-21T13:21:14;1.58;;;1.48;;
10596;SDS011;5346;48.766;8.674;2023-03-21T13:24:01;3.80;;;1.60;;
10596;SDS011;5346;48.766;8.674;2023-03-21T13:26:57;2.17;;;1.63;;
10596;SDS011;5346;48.766;8.674;2023-03-21T13:29:40;4.38;;;1.88;;
10596;SDS011;5346;48.766;8.674;2023-03-21T13:32:25;2.13;;;1.60;;
10596;SDS011;5346;48.766;8.674;2023-03-21T13:34:59;2.92;;;1.50;;
10596;SDS011;5346;48.766;8.674;2023-03-21T13:37:34;2.88;;;1.50;;
10596;SDS011;5346;48.766;8.674;2023-03-21T13:40:19;3.97;;;1.63;;
10596;SDS011;5346;48.766;8.674;2023-03-21T13:42:58;5.32;;;1.70;;
10596;SDS011;5346;48.766;8.674;2023-03-21T13:45:33;4.00;;;1.92;;
10596;SDS011;5346;48.766;8.674;2023-03-21T13:48:25;4.22;;;1.80;;
10596;SDS011;5346;48.766;8.674;2023-03-21T13:51:04;1.95;;;1.70;;
10596;SDS011;5346;48.766;8.674;2023-03-21T13:53:39;4.00;;;1.88;;
10596;SDS011;5346;48.766;8.674;2023-03-21T13:58:51;2.28;;;1.80;;
10596;SDS011;5346;48.766;8.674;2023-03-21T14:01:33;2.97;;;2.05;;
10596;SDS011;5346;48.766;8.674;2023-03-21T14:04:17;6.57;;;2.05;;
10596;SDS011;5346;48.766;8.674;2023-03-21T14:07:26;1.85;;;1.50;;
10596;SDS011;5346;48.766;8.674;2023-03-21T14:10:12;2.42;;;1.70;;
10596;SDS011;5346;48.766;8.674;2023-03-21T14:13:21;4.20;;;1.90;;
10596;SDS011;5346;48.766;8.674;2023-03-21T14:16:04;3.17;;;1.90;;
10596;SDS011;5346;48.766;8.674;2023-03-21T14:18:50;3.30;;;2.10;;
10596;SDS011;5346;48.766;8.674;2023-03-21T14:21:25;2.53;;;2.03;;
10596;SDS011;5346;48.766;8.674;2023-03-21T14:24:11;3.80;;;1.80;;
10596;SDS011;5346;48.766;8.674;2023-03-21T14:26:40;3.58;;;1.90;;
10596;SDS011;5346;48.766;8.674;2023-03-21T14:32:03;3.05;;;1.80;;
10596;SDS011;5346;48.766;8.674;2023-03-21T14:34:37;3.92;;;1.98;;
10596;SDS011;5346;48.766;8.674;2023-03-21T14:40:24;2.30;;;1.60;;
10596;SDS011;5346;48.766;8.674;2023-03-21T14:42:53;1.98;;;1.70;;
10596;SDS011;5346;48.766;8.674;2023-03-21T14:45:28;2.25;;;1.50;;
10596;SDS011;5346;48.766;8.674;2023-03-21T14:48:09;2.67;;;1.52;;
10596;SDS011;5346;48.766;8.674;2023-03-21T14:50:41;2.72;;;1.55;;
10596;SDS011;5346;48.766;8.674;2023-03-21T14:53:19;2.35;;;1.60;;
10596;SDS011;5346;48.766;8.674;2023-03-21T14:58:54;2.33;;;1.25;;
10596;SDS011;5346;48.766;8.674;2023-03-21T15:01:29;2.05;;;1.40;;
10596;SDS011;5346;48.766;8.674;2023-03-21T15:04:06;2.25;;;1.30;;
10596;SDS011;5346;48.766;8.674;2023-03-21T15:06:59;1.88;;;1.42;;
10596;SDS011;5346;48.766;8.674;2023-03-21T15:09:46;2.15;;;1.42;;
10596;SDS011;5346;48.766;8.674;2023-03-21T15:12:35;1.83;;;1.48;;
10596;SDS011;5346;48.766;8.674;2023-03-21T15:15:12;2.65;;;1.55;;
10596;SDS011;5346;48.766;8.674;2023-03-21T15:17:42;1.70;;;1.15;;
10596;SDS011;5346;48.766;8.674;2023-03-21T15:20:18;1.63;;;1.40;;
10596;SDS011;5346;48.766;8.674;2023-03-21T15:23:05;2.70;;;1.27;;
10596;SDS011;5346;48.766;8.674;2023-03-21T15:25:49;1.98;;;1.60;;
10596;SDS011;5346;48.766;8.674;2023-03-21T15:28:24;2.70;;;1.17;;
10596;SDS011;5346;48.766;8.674;2023-03-21T15:30:55;1.67;;;1.42;;
10596;SDS011;5346;48.766;8.674;2023-03-21T15:33:29;2.53;;;1.27;;
10596;SDS011;5346;48.766;8.674;2023-03-21T15:36:07;4.10;;;1.80;;
10596;SDS011;5346;48.766;8.674;2023-03-21T15:46:41;2.63;;;1.27;;
10596;SDS011;5346;48.766;8.674;2023-03-21T15:49:18;3.05;;;1.27;;
10596;SDS011;5346;48.766;8.674;2023-03-21T15:52:12;2.03;;;1.58;;
10596;SDS011;5346;48.766;8.674;2023-03-21T15:54:49;3.75;;;1.65;;
10596;SDS011;5346;48.766;8.674;2023-03-21T15:57:23;2.20;;;1.60;;
10596;SDS011;5346;48.766;8.674;2023-03-21T16:00:03;4.15;;;1.67;;
10596;SDS011;5346;48.766;8.674;2023-03-21T16:02:47;3.03;;;1.10;;
10596;SDS011;5346;48.766;8.674;2023-03-21T16:05:30;1.95;;;1.30;;
10596;SDS011;5346;48.766;8.674;2023-03-21T16:08:33;2.63;;;1.20;;
10596;SDS011;5346;48.766;8.674;2023-03-21T16:11:17;1.65;;;1.30;;
10596;SDS011;5346;48.766;8.674;2023-03-21T16:14:01;1.50;;;1.40;;
10596;SDS011;5346;48.766;8.674;2023-03-21T16:16:37;1.70;;;1.30;;
10596;SDS011;5346;48.766;8.674;2023-03-21T16:19:06;2.03;;;1.50;;
10596;SDS011;5346;48.766;8.674;2023-03-21T16:21:40;3.67;;;1.10;;
10596;SDS011;5346;48.766;8.674;2023-03-21T16:24:10;2.45;;;1.65;;
10596;SDS011;5346;48.766;8.674;2023-03-21T16:26:46;1.77;;;1.13;;
10596;SDS011;5346;48.766;8.674;2023-03-21T16:29:17;1.88;;;1.38;;
10596;SDS011;5346;48.766;8.674;2023-03-21T16:31:52;2.97;;;1.30;;
10596;SDS011;5346;48.766;8.674;2023-03-21T16:34:28;2.08;;;1.40;;
10596;SDS011;5346;48.766;8.674;2023-03-21T16:37:04;2.25;;;1.30;;
10596;SDS011;5346;48.766;8.674;2023-03-21T16:39:38;2.33;;;1.30;;
10596;SDS011;5346;48.766;8.674;2023-03-21T16:42:12;1.13;;;1.02;;
10596;SDS011;5346;48.766;8.674;2023-03-21T16:44:46;1.90;;;1.17;;
10596;SDS011;5346;48.766;8.674;2023-03-21T16:47:20;2.20;;;1.13;;
10596;SDS011;5346;48.766;8.674;2023-03-21T16:49:57;0.98;;;0.90;;
10596;SDS011;5346;48.766;8.674;2023-03-21T16:52:34;1.20;;;1.00;;
10596;SDS011;5346;48.766;8.674;2023-03-21T16:55:02;2.53;;;1.58;;
10596;SDS011;5346;48.766;8.674;2023-03-21T16:57:37;2.17;;;1.27;;
10596;SDS011;5346;48.766;8.674;2023-03-21T17:00:05;1.20;;;1.10;;
10596;SDS011;5346;48.766;8.674;2023-03-21T17:02:42;1.88;;;1.20;;
10596;SDS011;5346;48.766;8.674;2023-03-21T17:05:09;2.63;;;1.08;;
10596;SDS011;5346;48.766;8.674;2023-03-21T17:07:43;1.48;;;1.17;;
10596;SDS011;5346;48.766;8.674;2023-03-21T17:10:17;1.90;;;1.30;;
10596;SDS011;5346;48.766;8.674;2023-03-21T17:13:05;1.63;;;1.27;;
10596;SDS011;5346;48.766;8.674;2023-03-21T17:15:39;1.90;;;1.40;;
10596;SDS011;5346;48.766;8.674;2023-03-21T17:18:16;1.55;;;1.30;;
10596;SDS011;5346;48.766;8.674;2023-03-21T17:20:53;1.58;;;1.45;;
10596;SDS011;5346;48.766;8.674;2023-03-21T17:23:28;1.20;;;1.08;;
10596;SDS011;5346;48.766;8.674;2023-03-21T17:26:04;3.25;;;1.63;;
10596;SDS011;5346;48.766;8.674;2023-03-21T17:28:41;1.88;;;1.48;;
10596;SDS011;5346;48.766;8.674;2023-03-21T17:31:16;2.45;;;1.40;;
10596;SDS011;5346;48.766;8.674;2023-03-21T17:33:45;1.50;;;1.30;;
10596;SDS011;5346;48.766;8.674;2023-03-21T17:36:20;3.20;;;1.45;;
10596;SDS011;5346;48.766;8.674;2023-03-21T17:38:58;2.10;;;1.40;;
10596;SDS011;5346;48.766;8.674;2023-03-21T17:41:33;1.50;;;1.40;;
10596;SDS011;5346;48.766;8.674;2023-03-21T17:44:02;1.95;;;1.50;;
10596;SDS011;5346;48.766;8.674;2023-03-21T17:46:37;4.78;;;2.00;;
10596;SDS011;5346;48.766;8.674;2023-03-21T17:49:15;3.05;;;1.58;;
10596;SDS011;5346;48.766;8.674;2023-03-21T17:51:43;1.75;;;1.40;;
10596;SDS011;5346;48.766;8.674;2023-03-21T17:54:19;2.38;;;1.70;;
10596;SDS011;5346;48.766;8.674;2023-03-21T17:56:53;1.63;;;1.35;;
10596;SDS011;5346;48.766;8.674;2023-03-21T17:59:28;2.40;;;2.20;;
10596;SDS011;5346;48.766;8.674;2023-03-21T18:01:56;1.65;;;1.48;;
10596;SDS011;5346;48.766;8.674;2023-03-21T18:04:30;2.35;;;1.77;;